Time;durP1;ratioP1;P1;durP2;ratioP2;P2;SDS_P1;SDS_P2;PMS_P1;PMS_P2;Temp;Humidity;BMP_temperature;BMP_pressure;BME280_temperature;BME280_humidity;BME280_pressure;Samples;Min_cycle;Max_cycle;Signal;HPM_P1;HPM_P2
2023/07/23 00:01:30;;;;;;;11.38;9.00;;;14.70;99.90;;;;;;5070641;28;20406;-78
2023/07/23 00:03:56;;;;;;;10.75;9.07;;;14.70;99.90;;;;;;5042065;28;20127;-77
2023/07/23 00:06:22;;;;;;;10.98;9.02;;;14.60;99.90;;;;;;5053167;28;20102;-77
2023/07/23 00:08:47;;;;;;;14.52;9.77;;;14.70;99.90;;;;;;5057321;28;20041;-77
2023/07/23 00:11:13;;;;;;;11.90;10.18;;;14.70;99.90;;;;;;5052482;28;20057;-76
2023/07/23 00:13:42;;;;;;;15.10;9.93;;;14.70;99.90;;;;;;5060379;28;20126;-75
2023/07/23 00:16:08;;;;;;;13.38;10.63;;;14.60;99.90;;;;;;5060675;28;20036;-75
2023/07/23 00:18:34;;;;;;;15.52;11.18;;;14.60;99.90;;;;;;5054072;28;20047;-76
2023/07/23 00:21:00;;;;;;;13.98;10.98;;;14.60;99.90;;;;;;5060140;28;20063;-76
2023/07/23 00:23:25;;;;;;;14.52;11.90;;;14.60;99.90;;;;;;5065778;28;20036;-74
2023/07/23 00:25:51;;;;;;;15.82;11.43;;;14.60;99.90;;;;;;5050909;28;20437;-75
2023/07/23 00:28:17;;;;;;;16.10;12.10;;;14.60;99.90;;;;;;5064258;28;20068;-74
2023/07/23 00:30:42;;;;;;;17.77;11.02;;;14.50;99.90;;;;;;5058660;28;20044;-75
2023/07/23 00:33:08;;;;;;;14.18;11.45;;;14.60;99.90;;;;;;5054886;28;20056;-75
2023/07/23 00:35:34;;;;;;;13.52;10.93;;;14.50;99.90;;;;;;5056672;28;20063;-75
2023/07/23 00:38:00;;;;;;;16.55;12.40;;;14.50;99.90;;;;;;5062184;28;20080;-75
2023/07/23 00:40:26;;;;;;;14.90;11.55;;;14.50;99.90;;;;;;5065263;28;20068;-75
2023/07/23 00:42:52;;;;;;;16.42;12.05;;;14.50;99.90;;;;;;5044728;28;20051;-74
2023/07/23 00:45:19;;;;;;;17.02;13.15;;;14.50;99.90;;;;;;5071288;28;20401;-76
2023/07/23 00:47:45;;;;;;;16.25;11.50;;;14.50;99.90;;;;;;5060547;28;20445;-75
2023/07/23 00:50:14;;;;;;;14.82;11.45;;;14.50;99.90;;;;;;5061991;28;20040;-75
2023/07/23 00:52:40;;;;;;;13.80;11.38;;;14.50;99.90;;;;;;5070547;28;20032;-75
2023/07/23 00:55:07;;;;;;;15.48;12.38;;;14.50;99.90;;;;;;5058553;28;20044;-74
2023/07/23 00:57:33;;;;;;;15.38;11.27;;;14.40;99.90;;;;;;5052436;28;20068;-75
2023/07/23 00:59:58;;;;;;;14.95;11.68;;;14.50;99.90;;;;;;5061283;28;20087;-75
2023/07/23 01:02:27;;;;;;;17.30;12.73;;;14.40;99.90;;;;;;5072704;28;20078;-75
2023/07/23 01:04:54;;;;;;;17.25;12.48;;;14.50;99.90;;;;;;5055750;28;20147;-75
2023/07/23 01:07:21;;;;;;;15.60;12.70;;;14.50;99.90;;;;;;5063564;28;20187;-75
2023/07/23 01:09:49;;;;;;;15.45;12.15;;;14.50;99.90;;;;;;5057988;28;20082;-75
2023/07/23 01:12:17;;;;;;;15.15;11.60;;;14.50;99.90;;;;;;5064154;28;20052;-75
2023/07/23 01:14:43;;;;;;;16.60;13.05;;;14.50;99.90;;;;;;5063155;28;20037;-75
2023/07/23 01:17:11;;;;;;;17.85;13.68;;;14.50;99.90;;;;;;5067070;28;20135;-75
2023/07/23 01:19:40;;;;;;;15.18;12.55;;;14.50;99.90;;;;;;5060046;28;20052;-74
2023/07/23 01:22:06;;;;;;;18.27;13.38;;;14.50;99.90;;;;;;5058977;28;20560;-75
2023/07/23 01:24:35;;;;;;;15.43;12.57;;;14.50;99.90;;;;;;5063070;28;20045;-75
2023/07/23 01:27:02;;;;;;;14.13;12.05;;;14.50;99.90;;;;;;5056088;28;21046;-74
2023/07/23 01:29:28;;;;;;;14.23;11.85;;;14.60;99.90;;;;;;5068839;28;20879;-75
2023/07/23 01:31:54;;;;;;;15.65;12.35;;;14.50;99.90;;;;;;5061182;28;20054;-75
2023/07/23 01:34:20;;;;;;;19.80;14.45;;;14.50;99.90;;;;;;5058261;28;20052;-75
2023/07/23 01:36:46;;;;;;;17.63;12.40;;;14.50;99.90;;;;;;5064878;28;21793;-75
2023/07/23 01:39:12;;;;;;;17.83;12.57;;;14.60;99.90;;;;;;5059098;28;20461;-75
2023/07/23 01:41:38;;;;;;;14.15;12.07;;;14.50;99.90;;;;;;5066391;28;20037;-75
2023/07/23 01:44:05;;;;;;;13.60;10.65;;;14.50;99.90;;;;;;5062534;28;20080;-74
2023/07/23 01:46:31;;;;;;;15.38;11.60;;;14.50;99.90;;;;;;5058901;28;20127;-74
2023/07/23 01:48:57;;;;;;;13.68;11.35;;;14.50;99.90;;;;;;5042507;28;20125;-74
2023/07/23 01:51:22;;;;;;;16.92;12.55;;;14.50;99.90;;;;;;5045879;28;20053;-74
2023/07/23 01:53:48;;;;;;;16.30;10.75;;;14.50;99.90;;;;;;5066338;28;20033;-74
2023/07/23 01:56:14;;;;;;;19.98;13.20;;;14.50;99.90;;;;;;5060473;28;20048;-74
2023/07/23 01:58:40;;;;;;;12.75;11.05;;;14.50;99.90;;;;;;5047844;28;20065;-74
2023/07/23 02:01:06;;;;;;;13.85;11.45;;;14.50;99.90;;;;;;5056726;28;20506;-74
2023/07/23 02:03:32;;;;;;;13.82;10.82;;;14.60;99.90;;;;;;5036534;28;20045;-74
2023/07/23 02:05:59;;;;;;;12.23;10.50;;;14.50;99.90;;;;;;5056219;28;20087;-74
2023/07/23 02:08:25;;;;;;;15.13;11.32;;;14.50;99.90;;;;;;5042590;28;20045;-74
2023/07/23 02:10:56;;;;;;;17.92;12.57;;;14.50;99.90;;;;;;5060127;28;20051;-74
2023/07/23 02:13:22;;;;;;;20.98;13.88;;;14.50;99.90;;;;;;5053797;28;20049;-74
2023/07/23 02:15:47;;;;;;;15.05;11.70;;;14.50;99.90;;;;;;5048871;28;20422;-74
2023/07/23 02:18:14;;;;;;;15.23;12.07;;;14.50;99.90;;;;;;5046290;28;20135;-74
2023/07/23 02:20:42;;;;;;;16.25;12.48;;;14.50;99.90;;;;;;5061193;28;20043;-74
2023/07/23 02:23:08;;;;;;;21.23;15.20;;;14.50;99.90;;;;;;5035967;28;20045;-73
2023/07/23 02:25:39;;;;;;;16.27;12.45;;;14.50;99.90;;;;;;5059362;28;20771;-73
2023/07/23 02:28:07;;;;;;;15.70;13.10;;;14.50;99.90;;;;;;5043138;28;20400;-74
2023/07/23 02:30:33;;;;;;;15.25;12.77;;;14.50;99.90;;;;;;5057004;28;20048;-73
2023/07/23 02:32:59;;;;;;;16.35;12.07;;;14.50;99.90;;;;;;5043741;28;20049;-73
2023/07/23 02:35:25;;;;;;;16.00;12.88;;;14.50;99.90;;;;;;5052596;28;20056;-75
2023/07/23 02:37:51;;;;;;;23.63;16.20;;;14.50;99.90;;;;;;5041012;28;20037;-75
2023/07/23 02:40:16;;;;;;;16.50;13.63;;;14.60;99.90;;;;;;5048989;28;20049;-75
2023/07/23 02:42:42;;;;;;;15.20;13.43;;;14.50;99.90;;;;;;5063088;28;20040;-74
2023/07/23 02:45:08;;;;;;;17.40;14.02;;;14.50;99.90;;;;;;5046427;28;20059;-74
2023/07/23 02:47:34;;;;;;;29.27;17.75;;;14.50;99.90;;;;;;5044612;28;20518;-73
2023/07/23 02:50:00;;;;;;;15.68;13.77;;;14.50;99.90;;;;;;5055376;28;20048;-73
2023/07/23 02:52:25;;;;;;;16.27;13.88;;;14.50;99.90;;;;;;5028933;28;20076;-74
2023/07/23 02:54:51;;;;;;;18.88;14.05;;;14.50;99.90;;;;;;5043967;28;20029;-74
2023/07/23 02:57:17;;;;;;;18.30;13.80;;;14.50;99.90;;;;;;5040244;28;20041;-74
2023/07/23 02:59:42;;;;;;;21.60;15.13;;;14.50;99.90;;;;;;5052162;28;20076;-74
2023/07/23 03:02:08;;;;;;;18.77;14.63;;;14.50;99.90;;;;;;5045821;28;20048;-74
2023/07/23 03:04:34;;;;;;;14.60;13.05;;;14.50;99.90;;;;;;5062792;28;20052;-74
2023/07/23 03:07:00;;;;;;;18.27;13.43;;;14.50;99.90;;;;;;5064595;28;20065;-74
2023/07/23 03:09:25;;;;;;;15.90;13.88;;;14.50;99.90;;;;;;5038392;28;20044;-74
2023/07/23 03:11:51;;;;;;;23.27;16.70;;;14.50;99.90;;;;;;5061517;28;20033;-75
2023/07/23 03:14:18;;;;;;;15.90;13.90;;;14.40;99.90;;;;;;5060147;28;20054;-75
2023/07/23 03:16:44;;;;;;;16.25;14.15;;;14.50;99.90;;;;;;5040857;28;20037;-75
2023/07/23 03:19:11;;;;;;;16.38;13.93;;;14.50;99.90;;;;;;5063418;28;20064;-75
2023/07/23 03:21:36;;;;;;;16.85;14.00;;;14.50;99.90;;;;;;5065534;28;20644;-74
2023/07/23 03:24:02;;;;;;;16.35;14.60;;;14.50;99.90;;;;;;5069333;28;20549;-75
2023/07/23 03:26:28;;;;;;;15.48;13.70;;;14.50;99.90;;;;;;5063511;28;20517;-75
2023/07/23 03:28:54;;;;;;;18.00;15.07;;;14.50;99.90;;;;;;5059211;28;20069;-75
2023/07/23 03:31:20;;;;;;;18.45;15.02;;;14.50;99.90;;;;;;5052606;28;20043;-75
2023/07/23 03:33:45;;;;;;;17.67;15.07;;;14.40;99.90;;;;;;5061337;28;20518;-74
2023/07/23 03:36:11;;;;;;;15.43;13.82;;;14.40;99.90;;;;;;5065382;28;20041;-75
2023/07/23 03:38:37;;;;;;;17.23;14.18;;;14.50;99.90;;;;;;5059088;28;20044;-74
2023/07/23 03:41:03;;;;;;;14.77;13.27;;;14.50;99.90;;;;;;5055943;28;20544;-74
2023/07/23 03:43:29;;;;;;;21.98;16.52;;;14.50;99.90;;;;;;5061425;28;20127;-74
2023/07/23 03:45:54;;;;;;;17.13;13.85;;;14.50;99.90;;;;;;5063277;28;20033;-74
2023/07/23 03:48:20;;;;;;;18.00;15.43;;;14.50;99.90;;;;;;5073463;28;20501;-74
2023/07/23 03:50:46;;;;;;;16.00;13.80;;;14.50;99.90;;;;;;5072286;28;20040;-75
2023/07/23 03:53:11;;;;;;;17.10;14.27;;;14.50;99.90;;;;;;5050826;28;20558;-74
2023/07/23 03:55:37;;;;;;;19.67;15.20;;;14.50;99.90;;;;;;5051018;28;20078;-74
2023/07/23 03:58:03;;;;;;;17.05;14.93;;;14.50;99.90;;;;;;5062461;28;20040;-74
2023/07/23 04:00:29;;;;;;;17.60;15.70;;;14.50;99.90;;;;;;5043233;28;20072;-74
2023/07/23 04:02:54;;;;;;;26.98;19.27;;;14.50;99.90;;;;;;5051623;28;20118;-74
2023/07/23 04:05:20;;;;;;;15.50;13.82;;;14.50;99.90;;;;;;5037101;28;20660;-74
2023/07/23 04:07:46;;;;;;;17.88;14.88;;;14.50;99.90;;;;;;5033479;28;20441;-74
2023/07/23 04:10:12;;;;;;;17.63;15.10;;;14.50;99.90;;;;;;5052962;28;20101;-73
2023/07/23 04:12:37;;;;;;;20.35;15.20;;;14.50;99.90;;;;;;5056429;28;20403;-74
2023/07/23 04:15:04;;;;;;;18.10;14.13;;;14.50;99.90;;;;;;5063033;28;20403;-74
2023/07/23 04:17:29;;;;;;;24.55;18.08;;;14.50;99.90;;;;;;5056251;28;20464;-74
2023/07/23 04:19:55;;;;;;;19.45;15.45;;;14.50;99.90;;;;;;5053638;28;20045;-74
2023/07/23 04:22:21;;;;;;;18.25;15.30;;;14.50;99.90;;;;;;5047019;28;20059;-73
2023/07/23 04:24:47;;;;;;;16.45;14.73;;;14.50;99.90;;;;;;5053456;28;20110;-73
2023/07/23 04:27:12;;;;;;;16.85;14.27;;;14.50;99.90;;;;;;5042947;28;20088;-74
2023/07/23 04:29:38;;;;;;;17.30;14.60;;;14.50;99.90;;;;;;5048092;28;20402;-74
2023/07/23 04:32:04;;;;;;;19.50;15.20;;;14.60;99.90;;;;;;5044749;28;20049;-73
2023/07/23 04:34:30;;;;;;;23.30;17.02;;;14.60;99.90;;;;;;5042325;28;20068;-73
2023/07/23 04:36:55;;;;;;;15.90;13.88;;;14.50;99.90;;;;;;5044113;28;20507;-73
2023/07/23 04:39:21;;;;;;;18.70;14.98;;;14.60;99.90;;;;;;5048482;28;20071;-74
2023/07/23 04:41:47;;;;;;;20.10;16.83;;;14.60;99.90;;;;;;5043269;28;20060;-74
2023/07/23 04:44:13;;;;;;;21.83;17.13;;;14.60;99.90;;;;;;5048784;28;20518;-74
2023/07/23 04:46:39;;;;;;;17.20;14.55;;;14.60;99.90;;;;;;5043004;28;20055;-74
2023/07/23 04:49:04;;;;;;;16.58;14.80;;;14.60;99.90;;;;;;5058484;28;20071;-74
2023/07/23 04:51:31;;;;;;;20.02;16.40;;;14.60;99.90;;;;;;5056395;28;20102;-74
2023/07/23 04:53:57;;;;;;;18.00;15.23;;;14.60;99.90;;;;;;5044315;28;20037;-74
2023/07/23 04:56:22;;;;;;;21.42;17.23;;;14.60;99.90;;;;;;5045311;28;20442;-74
2023/07/23 04:58:48;;;;;;;18.13;15.18;;;14.60;99.90;;;;;;5030018;28;20032;-74
2023/07/23 05:01:14;;;;;;;20.70;16.67;;;14.60;99.90;;;;;;5055264;28;20072;-74
2023/07/23 05:03:40;;;;;;;32.60;22.48;;;14.60;99.90;;;;;;5044655;28;20064;-74
2023/07/23 05:06:06;;;;;;;28.85;21.83;;;14.60;99.90;;;;;;5042187;28;20041;-74
2023/07/23 05:08:33;;;;;;;20.25;18.13;;;14.60;99.90;;;;;;5062345;28;20056;-74
2023/07/23 05:11:03;;;;;;;17.77;15.88;;;14.60;99.90;;;;;;5044918;28;20123;-74
2023/07/23 05:13:29;;;;;;;19.83;17.73;;;14.70;99.90;;;;;;5061248;28;20479;-74
2023/07/23 05:15:58;;;;;;;23.67;19.27;;;14.60;99.90;;;;;;5047263;28;20043;-74
2023/07/23 05:18:24;;;;;;;20.10;16.63;;;14.70;99.90;;;;;;5061455;28;20055;-74
2023/07/23 05:20:50;;;;;;;24.27;18.13;;;14.70;99.90;;;;;;5045910;28;20036;-74
2023/07/23 05:23:17;;;;;;;20.38;17.50;;;14.60;99.90;;;;;;5059441;28;20520;-74
2023/07/23 05:25:43;;;;;;;19.55;17.45;;;14.70;99.90;;;;;;5064671;28;20068;-74
2023/07/23 05:28:10;;;;;;;18.90;16.63;;;14.60;99.90;;;;;;5062638;28;20049;-74
2023/07/23 05:30:35;;;;;;;20.40;16.45;;;14.70;99.90;;;;;;5066794;28;20410;-74
2023/07/23 05:33:01;;;;;;;20.50;18.42;;;14.70;99.90;;;;;;5067618;28;20048;-74
2023/07/23 05:35:27;;;;;;;28.35;20.55;;;14.70;99.90;;;;;;5043373;28;20315;-74
2023/07/23 05:37:53;;;;;;;21.15;18.60;;;14.70;99.90;;;;;;5063094;28;20082;-74
2023/07/23 05:40:18;;;;;;;18.45;16.40;;;14.70;99.90;;;;;;5058460;28;20051;-74
2023/07/23 05:42:44;;;;;;;19.33;17.25;;;14.80;99.90;;;;;;5061523;28;20542;-74
2023/07/23 05:45:10;;;;;;;19.50;17.30;;;14.80;99.90;;;;;;5056150;28;20102;-73
2023/07/23 05:47:36;;;;;;;35.05;24.15;;;14.80;99.90;;;;;;5061858;28;20052;-74
2023/07/23 05:50:02;;;;;;;18.50;16.52;;;14.90;99.90;;;;;;5046456;28;20048;-73
2023/07/23 05:52:28;;;;;;;19.25;17.23;;;14.80;99.90;;;;;;5062998;28;20040;-73
2023/07/23 05:54:53;;;;;;;18.75;16.77;;;14.90;99.90;;;;;;5065662;28;20041;-73
2023/07/23 05:57:19;;;;;;;20.48;17.88;;;14.90;99.90;;;;;;5063142;28;20522;-74
2023/07/23 05:59:45;;;;;;;20.90;18.48;;;15.00;99.90;;;;;;5059360;28;20101;-74
2023/07/23 06:02:11;;;;;;;20.95;18.23;;;15.00;99.90;;;;;;5053374;28;20042;-73
2023/07/23 06:04:38;;;;;;;19.58;17.60;;;15.10;99.90;;;;;;5055179;28;20064;-74
2023/07/23 06:07:04;;;;;;;21.15;16.13;;;15.00;99.90;;;;;;5048540;28;20364;-73
2023/07/23 06:09:30;;;;;;;18.05;16.20;;;15.00;99.90;;;;;;5051097;28;20044;-73
2023/07/23 06:11:56;;;;;;;22.75;18.13;;;15.10;99.90;;;;;;5061431;28;20097;-73
2023/07/23 06:14:22;;;;;;;19.92;17.23;;;15.10;99.90;;;;;;5043093;28;20051;-73
2023/07/23 06:16:47;;;;;;;21.05;18.83;;;15.10;99.90;;;;;;5045087;28;20637;-73
2023/07/23 06:19:14;;;;;;;18.75;16.63;;;15.10;99.90;;;;;;5057520;28;20419;-73
2023/07/23 06:21:39;;;;;;;18.98;17.08;;;15.10;99.90;;;;;;5063948;28;20100;-73
2023/07/23 06:24:05;;;;;;;26.08;20.55;;;15.10;99.90;;;;;;5045769;28;20048;-72
2023/07/23 06:26:31;;;;;;;21.90;19.35;;;15.20;99.90;;;;;;5054808;28;20454;-73
2023/07/23 06:28:57;;;;;;;20.55;18.42;;;15.20;99.90;;;;;;5064050;28;20047;-73
2023/07/23 06:31:22;;;;;;;19.05;17.08;;;15.20;99.90;;;;;;5044903;28;20973;-73
2023/07/23 06:33:48;;;;;;;20.45;16.98;;;15.20;99.90;;;;;;5059980;28;20029;-73
2023/07/23 06:36:14;;;;;;;21.02;18.27;;;15.30;99.90;;;;;;5060868;28;20119;-73
2023/07/23 06:38:40;;;;;;;21.02;18.73;;;15.30;99.90;;;;;;5064579;28;20119;-73
2023/07/23 06:41:06;;;;;;;17.80;15.98;;;15.30;99.90;;;;;;5062307;28;20053;-73
2023/07/23 06:43:32;;;;;;;19.88;16.33;;;15.30;99.90;;;;;;5059463;28;20051;-72
2023/07/23 06:45:58;;;;;;;18.80;16.65;;;15.30;99.90;;;;;;5057825;28;20033;-72
2023/07/23 06:48:28;;;;;;;18.60;16.58;;;15.40;99.90;;;;;;5054974;28;20076;-72
2023/07/23 06:50:55;;;;;;;18.17;16.38;;;15.40;99.90;;;;;;5061946;28;20045;-72
2023/07/23 06:53:21;;;;;;;19.52;17.30;;;15.40;99.90;;;;;;5047580;28;20048;-73
2023/07/23 06:56:10;;;;;;;19.55;17.27;;;15.40;99.90;;;;;;5064354;28;20033;-72
2023/07/23 06:58:37;;;;;;;20.15;17.70;;;15.40;99.90;;;;;;5051559;28;20052;-72
2023/07/23 07:01:05;;;;;;;18.38;16.42;;;15.40;99.90;;;;;;5064205;28;20044;-73
2023/07/23 07:03:30;;;;;;;18.00;15.73;;;15.50;99.90;;;;;;5042823;28;20052;-73
2023/07/23 07:05:57;;;;;;;19.00;16.42;;;15.50;99.90;;;;;;5071488;28;20047;-72
2023/07/23 07:08:23;;;;;;;20.45;16.77;;;15.50;99.90;;;;;;5045212;28;20086;-72
2023/07/23 07:10:49;;;;;;;20.60;16.42;;;15.60;99.90;;;;;;5068965;28;20064;-72
2023/07/23 07:13:15;;;;;;;20.95;17.40;;;15.60;99.90;;;;;;5064039;28;20145;-72
2023/07/23 07:15:43;;;;;;;21.00;16.00;;;15.60;99.90;;;;;;5052649;28;20067;-72
2023/07/23 07:18:09;;;;;;;21.52;16.85;;;15.60;99.90;;;;;;5053202;28;20115;-73
2023/07/23 07:20:35;;;;;;;20.15;16.73;;;15.60;99.90;;;;;;5064367;28;20044;-72
2023/07/23 07:23:01;;;;;;;18.27;15.82;;;15.70;99.90;;;;;;5049105;28;20052;-72
2023/07/23 07:25:26;;;;;;;23.05;16.70;;;15.70;99.90;;;;;;5062600;28;20527;-72
2023/07/23 07:27:52;;;;;;;23.00;16.80;;;15.70;99.90;;;;;;5051798;28;20076;-72
2023/07/23 07:30:18;;;;;;;21.75;16.02;;;15.70;99.90;;;;;;5050915;28;20058;-72
2023/07/23 07:32:44;;;;;;;23.52;17.85;;;15.80;99.90;;;;;;5062235;28;20043;-72
2023/07/23 07:35:10;;;;;;;23.35;18.40;;;15.80;99.90;;;;;;5057350;28;20105;-72
2023/07/23 07:37:39;;;;;;;20.85;15.60;;;15.80;99.90;;;;;;5068919;28;20036;-72
2023/07/23 07:40:05;;;;;;;21.10;15.55;;;15.80;99.90;;;;;;5050543;28;20568;-72
2023/07/23 07:42:31;;;;;;;20.40;15.35;;;15.80;99.90;;;;;;5057539;28;20127;-72
2023/07/23 07:44:57;;;;;;;20.98;15.57;;;15.80;99.90;;;;;;5060717;28;20174;-72
2023/07/23 07:47:22;;;;;;;20.60;15.07;;;15.70;99.90;;;;;;5061493;28;20495;-72
2023/07/23 07:49:52;;;;;;;21.67;16.90;;;15.80;99.90;;;;;;5070178;28;20047;-72
2023/07/23 07:52:17;;;;;;;20.60;15.85;;;15.70;99.90;;;;;;5056376;28;20083;-73
2023/07/23 07:54:43;;;;;;;25.15;16.45;;;15.70;99.90;;;;;;5063613;28;20082;-73
2023/07/23 07:57:09;;;;;;;23.25;17.35;;;15.70;99.90;;;;;;5057805;28;20033;-73
2023/07/23 07:59:35;;;;;;;18.63;15.73;;;15.70;99.90;;;;;;5068317;28;20577;-73
2023/07/23 08:02:01;;;;;;;18.55;15.32;;;15.70;99.90;;;;;;5063835;28;20781;-73
2023/07/23 08:04:27;;;;;;;26.35;16.52;;;15.70;99.90;;;;;;5069098;28;20040;-73
2023/07/23 08:06:57;;;;;;;22.13;15.38;;;15.70;99.90;;;;;;5055230;28;20036;-73
2023/07/23 08:09:24;;;;;;;22.80;16.60;;;15.70;99.90;;;;;;5068098;28;20051;-73
2023/07/23 08:11:50;;;;;;;21.75;16.95;;;15.70;99.90;;;;;;5052097;28;20036;-73
2023/07/23 08:14:18;;;;;;;22.25;16.58;;;15.70;99.90;;;;;;5061452;28;20113;-72
2023/07/23 08:16:44;;;;;;;25.13;18.75;;;15.70;99.90;;;;;;5062886;28;20132;-73
2023/07/23 08:19:14;;;;;;;23.30;16.45;;;15.70;99.90;;;;;;5051511;28;20484;-73
2023/07/23 08:21:41;;;;;;;18.25;16.17;;;15.70;99.90;;;;;;5066012;28;20069;-74
2023/07/23 08:24:10;;;;;;;23.20;15.73;;;15.70;99.90;;;;;;5066275;28;20158;-72
2023/07/23 08:26:40;;;;;;;20.27;15.90;;;15.70;99.90;;;;;;5047954;28;20064;-73
2023/07/23 08:29:09;;;;;;;19.83;14.80;;;15.80;99.90;;;;;;5068955;28;20093;-73
2023/07/23 08:31:35;;;;;;;23.00;16.58;;;15.80;99.90;;;;;;5062199;28;20052;-73
2023/07/23 08:34:06;;;;;;;16.38;14.60;;;15.80;99.90;;;;;;5060176;28;20048;-73
2023/07/23 08:36:32;;;;;;;19.63;14.50;;;15.80;99.90;;;;;;5062919;28;20032;-73
2023/07/23 08:38:58;;;;;;;16.17;14.25;;;15.80;99.90;;;;;;5069135;28;20029;-73
2023/07/23 08:41:35;;;;;;;18.05;14.07;;;15.80;99.90;;;;;;5064888;28;20098;-73
2023/07/23 08:44:31;;;;;;;19.42;13.98;;;15.90;99.90;;;;;;5059909;28;20094;-73
2023/07/23 08:47:15;;;;;;;18.65;14.38;;;15.90;99.90;;;;;;5063320;28;20067;-72
2023/07/23 08:49:43;;;;;;;15.73;14.02;;;15.80;99.90;;;;;;5058245;28;20411;-72
2023/07/23 08:52:12;;;;;;;19.63;14.43;;;15.80;99.90;;;;;;5046655;28;20132;-72
2023/07/23 08:54:40;;;;;;;15.52;13.55;;;15.90;99.90;;;;;;5046327;28;20048;-72
2023/07/23 08:57:10;;;;;;;16.88;13.75;;;15.80;99.90;;;;;;5065693;28;20048;-73
2023/07/23 08:59:36;;;;;;;17.13;14.30;;;15.70;99.90;;;;;;5051910;28;20121;-72
2023/07/23 09:02:02;;;;;;;17.13;14.50;;;15.80;99.90;;;;;;5061060;28;20647;-73
2023/07/23 09:04:28;;;;;;;22.55;15.82;;;15.80;99.90;;;;;;5064873;28;20058;-72
2023/07/23 09:06:58;;;;;;;18.65;15.15;;;15.70;99.90;;;;;;5063302;28;20063;-72
2023/07/23 09:09:24;;;;;;;16.45;14.20;;;15.80;99.90;;;;;;5057788;28;20048;-72
2023/07/23 09:11:50;;;;;;;18.08;13.65;;;15.80;99.90;;;;;;5075245;28;20562;-72
2023/07/23 09:14:16;;;;;;;16.55;14.75;;;15.80;99.90;;;;;;5061587;28;20045;-72
2023/07/23 09:16:47;;;;;;;18.67;14.50;;;15.80;99.90;;;;;;5044020;28;20131;-72
2023/07/23 09:19:21;;;;;;;16.00;13.35;;;15.80;99.90;;;;;;5064360;28;20040;-72
2023/07/23 09:21:47;;;;;;;14.00;12.50;;;15.90;99.90;;;;;;5066749;28;20668;-72
2023/07/23 09:24:15;;;;;;;18.52;13.20;;;15.80;99.90;;;;;;5050353;28;20055;-72
2023/07/23 09:26:42;;;;;;;18.77;15.48;;;15.90;99.90;;;;;;5060579;28;20483;-73
2023/07/23 09:29:11;;;;;;;17.35;14.43;;;15.80;99.90;;;;;;5064915;28;20041;-72
2023/07/23 09:31:42;;;;;;;14.93;12.77;;;15.90;99.90;;;;;;5064477;28;20143;-72
2023/07/23 09:34:08;;;;;;;18.00;13.43;;;15.90;99.90;;;;;;5059367;28;20056;-72
2023/07/23 09:36:35;;;;;;;18.23;14.40;;;15.90;99.90;;;;;;5051449;28;20042;-72
2023/07/23 09:39:06;;;;;;;16.65;12.82;;;15.90;99.90;;;;;;5048426;28;20040;-72
2023/07/23 09:41:36;;;;;;;16.75;13.13;;;15.90;99.90;;;;;;5056885;28;20036;-72
2023/07/23 09:44:12;;;;;;;13.15;11.75;;;15.90;99.90;;;;;;5051380;28;20510;-72
2023/07/23 09:46:46;;;;;;;12.98;11.57;;;15.90;99.90;;;;;;5063740;28;20053;-72
2023/07/23 09:49:13;;;;;;;13.48;11.40;;;15.90;99.90;;;;;;5066890;28;20165;-73
2023/07/23 09:51:39;;;;;;;15.23;12.02;;;16.00;99.90;;;;;;5064343;28;20114;-73
2023/07/23 09:54:05;;;;;;;16.08;13.45;;;16.00;99.90;;;;;;5048264;28;20570;-73
2023/07/23 09:56:35;;;;;;;12.70;11.38;;;16.00;99.90;;;;;;5065281;28;20045;-72
2023/07/23 09:59:02;;;;;;;15.20;12.82;;;16.00;99.90;;;;;;5059755;28;20037;-73
2023/07/23 10:01:28;;;;;;;14.15;11.05;;;16.00;99.90;;;;;;5047413;28;20194;-73
2023/07/23 10:03:54;;;;;;;13.38;11.48;;;16.10;99.90;;;;;;5058105;28;20036;-72
2023/07/23 10:06:23;;;;;;;13.23;10.52;;;16.10;99.90;;;;;;5061659;28;20057;-73
2023/07/23 10:08:49;;;;;;;13.45;11.63;;;16.10;99.90;;;;;;5047372;28;20041;-73
2023/07/23 10:11:17;;;;;;;14.05;10.68;;;16.10;99.90;;;;;;5065737;28;20056;-72
2023/07/23 10:13:44;;;;;;;12.85;9.82;;;16.10;99.90;;;;;;5045016;28;20040;-72
2023/07/23 10:16:35;;;;;;;12.70;10.45;;;16.10;99.90;;;;;;5068425;28;20044;-73
2023/07/23 10:19:04;;;;;;;12.25;10.57;;;16.10;99.90;;;;;;5051267;28;20051;-72
2023/07/23 10:21:32;;;;;;;11.38;10.00;;;16.10;99.90;;;;;;5062206;28;20225;-73
2023/07/23 10:23:58;;;;;;;11.98;10.27;;;16.10;99.90;;;;;;5062322;28;20425;-73
2023/07/23 10:26:25;;;;;;;12.73;11.38;;;16.10;99.90;;;;;;5041481;28;20087;-73
2023/07/23 10:29:07;;;;;;;11.45;10.25;;;16.10;99.90;;;;;;5054764;28;20047;-73
2023/07/23 10:31:33;;;;;;;12.70;10.27;;;16.20;99.90;;;;;;5043099;28;20728;-73
2023/07/23 10:33:59;;;;;;;11.02;9.93;;;16.10;99.90;;;;;;5062056;28;20181;-73
2023/07/23 10:36:26;;;;;;;14.02;11.77;;;16.20;99.90;;;;;;5062406;28;20135;-73
2023/07/23 10:39:11;;;;;;;12.25;10.95;;;16.20;99.90;;;;;;5060905;28;20135;-73
2023/07/23 10:41:53;;;;;;;11.25;10.15;;;16.20;99.90;;;;;;5055469;28;20040;-73
2023/07/23 10:44:28;;;;;;;11.65;9.70;;;16.20;99.90;;;;;;5049370;28;20040;-73
2023/07/23 10:46:57;;;;;;;10.90;9.80;;;16.20;99.90;;;;;;5040803;28;20041;-73
2023/07/23 10:49:28;;;;;;;11.35;10.15;;;16.20;99.90;;;;;;5044299;28;20052;-73
2023/07/23 10:51:54;;;;;;;13.05;11.57;;;16.20;99.90;;;;;;5051609;28;20039;-73
2023/07/23 10:54:21;;;;;;;12.43;11.07;;;16.20;99.90;;;;;;5052651;28;20056;-73
2023/07/23 10:56:49;;;;;;;11.02;9.88;;;16.20;99.90;;;;;;5054348;28;20048;-74
2023/07/23 10:59:19;;;;;;;11.63;10.43;;;16.30;99.90;;;;;;5061619;28;20048;-73
2023/07/23 11:01:48;;;;;;;12.90;10.80;;;16.30;99.90;;;;;;5062764;28;20041;-74
2023/07/23 11:04:17;;;;;;;11.43;10.27;;;16.30;99.90;;;;;;5064405;28;20036;-74
2023/07/23 11:07:02;;;;;;;13.18;10.65;;;16.30;99.90;;;;;;5058234;28;20056;-74
2023/07/23 11:09:37;;;;;;;11.63;10.52;;;16.30;99.90;;;;;;5062940;28;20040;-74
2023/07/23 11:12:05;;;;;;;11.23;10.07;;;16.30;99.90;;;;;;5068262;28;20040;-74
2023/07/23 11:14:32;;;;;;;11.55;10.35;;;16.40;99.90;;;;;;5054545;28;20052;-74
2023/07/23 11:17:03;;;;;;;12.50;11.20;;;16.40;99.90;;;;;;5058687;28;20087;-73
2023/07/23 11:19:31;;;;;;;12.35;11.07;;;16.40;99.90;;;;;;5073156;28;20055;-74
2023/07/23 11:22:02;;;;;;;11.55;10.32;;;16.30;99.90;;;;;;5038928;28;20045;-74
2023/07/23 11:24:29;;;;;;;12.48;10.88;;;16.40;99.90;;;;;;5068150;28;20570;-73
2023/07/23 11:27:01;;;;;;;13.07;11.70;;;16.40;99.90;;;;;;5054257;28;20145;-74
2023/07/23 11:29:28;;;;;;;13.85;12.13;;;16.50;99.90;;;;;;5040916;28;20129;-74
2023/07/23 11:31:55;;;;;;;12.82;11.52;;;16.50;99.90;;;;;;5056972;28;20060;-74
2023/07/23 11:34:23;;;;;;;13.38;11.93;;;16.40;99.90;;;;;;5065666;28;20400;-74
2023/07/23 11:36:55;;;;;;;16.08;12.68;;;16.50;99.90;;;;;;5059269;28;20119;-74
2023/07/23 11:39:23;;;;;;;16.45;14.02;;;16.50;99.90;;;;;;5058168;28;20044;-74
2023/07/23 11:41:50;;;;;;;14.73;11.90;;;16.50;99.90;;;;;;5040808;28;20051;-74
2023/07/23 11:44:16;;;;;;;13.07;11.38;;;16.50;99.90;;;;;;5062661;28;20133;-74
2023/07/23 11:46:42;;;;;;;13.05;11.45;;;16.50;99.90;;;;;;5068051;28;20110;-73
2023/07/23 11:49:10;;;;;;;16.60;11.43;;;16.50;99.90;;;;;;5060622;28;20511;-73
2023/07/23 11:51:37;;;;;;;12.77;11.38;;;16.50;99.90;;;;;;5062255;28;20055;-74
2023/07/23 11:54:07;;;;;;;14.20;11.68;;;16.60;99.90;;;;;;5050518;28;20622;-75
2023/07/23 11:56:42;;;;;;;13.23;11.48;;;16.60;99.90;;;;;;5045294;28;20044;-74
2023/07/23 11:59:10;;;;;;;12.95;11.52;;;16.60;99.90;;;;;;5049962;28;20046;-74
2023/07/23 12:01:40;;;;;;;13.40;11.23;;;16.60;99.90;;;;;;5069000;28;20388;-74
2023/07/23 12:04:06;;;;;;;;;;;16.60;99.90;;;;;;5043695;28;20246;-75
2023/07/23 12:06:34;;;;;;;14.57;11.27;;;16.60;99.90;;;;;;5048053;28;19927;-74
2023/07/23 12:09:00;;;;;;;12.25;9.90;;;16.60;99.90;;;;;;5046737;28;20055;-74
2023/07/23 12:11:31;;;;;;;13.02;10.27;;;16.70;99.90;;;;;;5047766;28;20105;-75
2023/07/23 12:13:59;;;;;;;11.43;10.07;;;16.70;99.90;;;;;;5060500;28;20137;-74
2023/07/23 12:16:31;;;;;;;13.80;11.02;;;16.70;99.90;;;;;;5060280;28;20064;-74
2023/07/23 12:19:05;;;;;;;11.43;10.23;;;16.70;99.90;;;;;;5077183;28;20044;-73
2023/07/23 12:21:42;;;;;;;11.93;10.23;;;16.70;99.90;;;;;;5045511;28;20059;-74
2023/07/23 12:24:29;;;;;;;12.43;10.60;;;16.80;99.90;;;;;;5060410;28;20052;-75
2023/07/23 12:27:04;;;;;;;11.45;10.35;;;16.90;99.90;;;;;;5060789;28;20498;-74
2023/07/23 12:29:30;;;;;;;12.65;10.07;;;17.00;99.90;;;;;;5062083;28;20097;-74